Meiryu Maru — JD2358 — position and weather

sailwx.info

Track history (hours):
 
Tides and Currents Weather Stations Pressure Air Temp Water Temp Dewpoint Dewpoint Depression Visibility Wind Speed Wind Dir Waves Ship Positions

Meiryu Maru

Last reported at 2017-Dec-11 16:59 UTC. Time now 2017-Dec-14 16:56 UTC.
Position N 35°27' E 139°42'.

Length 76 m; draft 4 m.

Type: Cargo ship. MMSI: 431000206.

Date/timePositionNaut miles runAvg speedWind from/ knotsBaromVisibWave heightAir tempDewpointWater temp
2017-Dec-11 16:59N 35°27' E 139°42'3 6.9
2017-Dec-11 16:30N 35°23' E 139°43'510.7
2017-Dec-11 16:00N 35°18' E 139°44'510.6
2017-Dec-11 15:30N 35°13' E 139°47'510.6
2017-Dec-11 15:00N 35°08' E 139°45'611.7
2017-Dec-11 14:30N 35°05' E 139°39'611.7
2017-Dec-11 14:00N 35°02' E 139°33'612.5
2017-Dec-11 13:30N 34°59' E 139°26'612.6
2017-Dec-11 12:59N 34°56' E 139°19'611.7
2017-Dec-11 12:28N 34°52' E 139°14'511.6
2017-Dec-11 12:01N 34°48' E 139°10'612.0
2017-Dec-11 11:30N 34°43' E 139°05'712.0
2017-Dec-11 10:58N 34°38' E 138°60'511.2
2017-Dec-11 10:30N 34°35' E 138°54'611.8
2017-Dec-11 09:58N 34°35' E 138°47'510.6
2017-Dec-11 09:29N 34°35' E 138°40'511.4
2017-Dec-11 09:00N 34°35' E 138°34'711.8
2017-Dec-11 08:27N 34°34' E 138°26'511.5
2017-Dec-11 08:00N 34°34' E 138°20'611.2
2017-Dec-11 07:27N 34°34' E 138°12'4411.9
2017-Dec-11 03:48N 34°36' E 137°19'411.8
2017-Dec-11 03:29N 34°35' E 137°15'117 8.9
2017-Dec-10 14:24N 33°50' E 135°05'511.5
2017-Dec-10 13:58N 33°54' E 135°02'511.6
2017-Dec-10 13:30N 33°60' E 135°01'611.6
2017-Dec-10 13:00N 34°05' E 134°60'611.9
2017-Dec-10 12:31N 34°11' E 134°59'713.1
2017-Dec-10 12:00N 34°18' E 134°59'612.5
2017-Dec-10 11:30N 34°24' E 135°01'612.6
2017-Dec-10 11:00N 34°30' E 135°02'612.0
2017-Dec-10 10:31N 34°36' E 135°02'612.9
2017-Dec-10 10:00N 34°37' E 134°55'612.8
2017-Dec-10 09:30N 34°41' E 134°49'2 0.1
2017-Dec-09 11:42N 34°43' E 134°49'0 1.1
2017-Dec-09 11:30N 34°43' E 134°49'1 2.9
2017-Dec-09 10:59N 34°42' E 134°48'1 2.5
2017-Dec-09 10:29N 34°41' E 134°48'0 0.0
2017-Dec-09 09:55N 34°41' E 134°48'0 0.0
2017-Dec-09 09:26N 34°41' E 134°48'1 2.9
2017-Dec-09 09:00N 34°40' E 134°49'5 9.6
2017-Dec-09 08:31N 34°38' E 134°54'510.5
2017-Dec-09 08:00N 34°38' E 135°00'510.5
2017-Dec-09 07:30N 34°34' E 135°05'611.7
2017-Dec-09 07:00N 34°29' E 135°04'612.1
2017-Dec-09 06:30N 34°23' E 135°02'612.4
2017-Dec-09 06:00N 34°17' E 134°59'612.0
2017-Dec-09 05:30N 34°11' E 135°00'611.7
2017-Dec-09 05:00N 34°05' E 135°01'611.5
2017-Dec-09 04:28N 33°59' E 135°02'174 9.4
2017-Dec-08 09:58N 34°34' E 138°28'5 9.9
2017-Dec-08 09:25N 34°35' E 138°34'18 9.9
2017-Dec-08 07:34N 34°36' E 138°57'311.3
2017-Dec-08 07:18N 34°38' E 138°59'412.2
2017-Dec-08 07:00N 34°40' E 139°02'812.0
2017-Dec-08 06:21N 34°46' E 139°08'1011.5
2017-Dec-08 05:29N 34°53' E 139°17'610.9
2017-Dec-08 04:56N 34°57' E 139°23'4 9.5
2017-Dec-08 04:30N 34°59' E 139°27'5 9.2
2017-Dec-08 04:00N 35°01' E 139°32'510.5
2017-Dec-08 03:30N 35°04' E 139°37'510.6
2017-Dec-08 03:00N 35°08' E 139°42'511.1
2017-Dec-08 02:30N 35°12' E 139°46'611.7
2017-Dec-08 02:00N 35°18' E 139°44'611.8
2017-Dec-08 01:30N 35°24' E 139°43'611.6
2017-Dec-08 01:00N 35°27' E 139°48'611.7
2017-Dec-08 00:29N 35°31' E 139°55'3 3.9
2017-Dec-07 23:47N 35°31' E 139°58'0 0.1
2017-Dec-07 23:26N 35°31' E 139°58'0 0.0
2017-Dec-07 22:56N 35°31' E 139°58'0 0.1
2017-Dec-07 22:20N 35°31' E 139°58'0 0.0
2017-Dec-07 21:56N 35°31' E 139°58'0 0.0
2017-Dec-07 21:08N 35°31' E 139°58'0 0.0
2017-Dec-07 20:56N 35°31' E 139°58'0 0.0
2017-Dec-07 19:32N 35°31' E 139°58'0 0.0
2017-Dec-07 19:29N 35°31' E 139°58'0 0.0
2017-Dec-07 18:59N 35°31' E 139°58'0 0.0
2017-Dec-07 18:29N 35°31' E 139°58'0 0.0
2017-Dec-07 17:59N 35°31' E 139°58'0 0.0
2017-Dec-07 17:26N 35°31' E 139°58'0 0.0
2017-Dec-07 16:59N 35°31' E 139°58'0 0.0
2017-Dec-07 16:29N 35°31' E 139°58'0 0.0
2017-Dec-07 15:56N 35°31' E 139°58'0 0.0
2017-Dec-07 15:29N 35°31' E 139°58'0 0.1
2017-Dec-07 14:56N 35°31' E 139°58'0 0.0
2017-Dec-07 13:50N 35°31' E 139°58'0 0.0
2017-Dec-07 13:29N 35°31' E 139°58'0 0.0
2017-Dec-07 12:59N 35°31' E 139°58'0 0.0
2017-Dec-07 12:29N 35°31' E 139°58'0 0.1
2017-Dec-07 11:50N 35°31' E 139°58'0 0.1
2017-Dec-07 11:26N 35°31' E 139°58'0 0.0
2017-Dec-07 10:50N 35°31' E 139°58'0 0.0
2017-Dec-07 10:26N 35°31' E 139°58'0 0.1
2017-Dec-07 09:57N 35°31' E 139°58'4 9.3
2017-Dec-07 09:30N 35°35' E 139°59'5 0.5
2017-Dec-06 21:57N 35°41' E 139°57'3 6.1
2017-Dec-06 21:30N 35°38' E 139°59'1 1.3
2017-Dec-06 20:58N 35°37' E 139°59'  
2017-Dec-04 10:24N 34°43' E 134°51'0 0.0
2017-Dec-04 10:00N 34°43' E 134°51'0 0.0
2017-Dec-04 09:24N 34°43' E 134°51'0 0.0
2017-Dec-04 09:00N 34°43' E 134°51'0 0.0
2017-Dec-04 08:30N 34°43' E 134°51'0 0.0
2017-Dec-04 07:30N 34°43' E 134°51'0 0.0
2017-Dec-04 07:00N 34°43' E 134°51'0 0.0
2017-Dec-04 06:30N 34°43' E 134°51'0 0.0
2017-Dec-04 06:00N 34°43' E 134°51'0 0.0
2017-Dec-04 05:30N 34°43' E 134°51'0 0.0
2017-Dec-04 05:00N 34°43' E 134°51'0 0.0
2017-Dec-04 04:30N 34°43' E 134°51'0 0.0
2017-Dec-04 04:00N 34°43' E 134°51'0 0.0
2017-Dec-04 03:30N 34°43' E 134°51'0 0.0
2017-Dec-04 03:00N 34°43' E 134°51'0 0.0
2017-Dec-04 02:30N 34°43' E 134°51'0 0.0
2017-Dec-04 02:00N 34°43' E 134°51'0 0.0
2017-Dec-04 01:30N 34°43' E 134°51'0 0.0
2017-Dec-04 00:48N 34°43' E 134°51'0 0.0
2017-Dec-04 00:30N 34°43' E 134°51'0 0.0
2017-Dec-04 00:00N 34°43' E 134°51'0 0.0
2017-Dec-03 23:30N 34°43' E 134°51'0 0.0
2017-Dec-03 23:00N 34°43' E 134°51'0 0.0
2017-Dec-03 22:30N 34°43' E 134°51'0 0.0
2017-Dec-03 22:00N 34°43' E 134°51'0 0.0
2017-Dec-03 21:30N 34°43' E 134°51'0 0.0
2017-Dec-03 21:00N 34°43' E 134°51'0 0.0
2017-Dec-03 20:30N 34°43' E 134°51'0 0.0
2017-Dec-03 20:00N 34°43' E 134°51'0 0.0
2017-Dec-03 19:30N 34°43' E 134°51'0 0.0
2017-Dec-03 19:00N 34°43' E 134°51'0 0.0
2017-Dec-03 18:30N 34°43' E 134°51'0 0.0
2017-Dec-03 17:51N 34°43' E 134°51'0 0.0
2017-Dec-03 17:30N 34°43' E 134°51'0 0.0
2017-Dec-03 17:00N 34°43' E 134°51'0 0.0
2017-Dec-03 16:30N 34°43' E 134°51'0 0.0
2017-Dec-03 16:00N 34°43' E 134°51'0 0.0
2017-Dec-03 15:30N 34°43' E 134°51'0 0.0
2017-Dec-03 15:00N 34°43' E 134°51'0 0.0
2017-Dec-03 14:30N 34°43' E 134°51'0 0.0
2017-Dec-03 14:00N 34°43' E 134°51'0 0.0
2017-Dec-03 13:30N 34°43' E 134°51'0 0.0
2017-Dec-03 13:00N 34°43' E 134°51'0 0.0
2017-Dec-03 12:30N 34°43' E 134°51'0 0.0
2017-Dec-03 11:54N 34°43' E 134°51'0 0.0
2017-Dec-03 11:30N 34°43' E 134°51'0 0.0
2017-Dec-03 11:00N 34°43' E 134°51'0 0.0
2017-Dec-03 10:27N 34°43' E 134°51'0 0.0
2017-Dec-03 10:00N 34°43' E 134°51'0 0.0
2017-Dec-03 09:30N 34°43' E 134°51'0 0.0
2017-Dec-03 09:00N 34°43' E 134°51'0 0.0
2017-Dec-03 08:30N 34°43' E 134°51'0 0.0
2017-Dec-03 08:00N 34°43' E 134°51'0 0.0
2017-Dec-03 07:30N 34°43' E 134°51'0 0.0
2017-Dec-03 07:00N 34°43' E 134°51'0 0.0
2017-Dec-03 06:30N 34°43' E 134°51'0 0.0
2017-Dec-03 06:00N 34°43' E 134°51'0 0.0
2017-Dec-03 05:30N 34°43' E 134°51'0 0.0
2017-Dec-03 05:00N 34°43' E 134°51'0 0.0
2017-Dec-03 04:30N 34°43' E 134°51'0 0.0
2017-Dec-03 04:00N 34°43' E 134°51'0 0.0
2017-Dec-03 03:30N 34°43' E 134°51'1 1.3
2017-Dec-03 03:00N 34°42' E 134°50'4 8.6
2017-Dec-03 02:30N 34°38' E 134°52'510.3
2017-Dec-03 02:00N 34°38' E 134°59'611.6
2017-Dec-03 01:30N 34°35' E 135°05'611.8
2017-Dec-03 01:00N 34°30' E 135°04'612.1
2017-Dec-03 00:30N 34°24' E 135°02'611.9
2017-Dec-03 00:00N 34°18' E 134°60'612.4
2017-Dec-02 23:30N 34°12' E 134°60'612.2
2017-Dec-02 23:00N 34°06' E 135°00'612.2
2017-Dec-02 22:30N 33°60' E 135°01'104 8.0
2017-Dec-02 09:29N 34°33' E 137°01'712.9
2017-Dec-02 08:58N 34°37' E 136°55'511.1
2017-Dec-02 08:30N 34°41' E 136°51'612.6
2017-Dec-02 08:00N 34°47' E 136°48'612.5
2017-Dec-02 07:30N 34°53' E 136°47'612.0
2017-Dec-02 07:00N 34°59' E 136°49'510.6
2017-Dec-02 06:30N 35°03' E 136°53'0 0.1
2017-Dec-02 06:00N 35°03' E 136°53'0 0.0
2017-Dec-02 05:30N 35°03' E 136°53'0 0.0
2017-Dec-02 05:00N 35°03' E 136°53'0 0.0
2017-Dec-02 04:30N 35°03' E 136°53'0 0.0
2017-Dec-02 04:00N 35°03' E 136°53'0 0.0
2017-Dec-02 03:30N 35°03' E 136°53'0 0.0
2017-Dec-02 03:00N 35°03' E 136°53'0 0.0
2017-Dec-02 02:30N 35°03' E 136°53'0 0.0
2017-Dec-02 02:00N 35°03' E 136°53'0 0.0
2017-Dec-02 01:30N 35°03' E 136°53'0 0.0
2017-Dec-02 01:00N 35°03' E 136°53'0 0.0
2017-Dec-02 00:30N 35°03' E 136°53'0 0.0
2017-Dec-02 00:00N 35°03' E 136°53'0 0.0
2017-Dec-01 23:30N 35°03' E 136°53'0 0.1
2017-Dec-01 23:01N 35°03' E 136°53'3 6.2
2017-Dec-01 22:30N 35°01' E 136°50'3 5.4
2017-Dec-01 22:00N 34°59' E 136°48'0 0.0
2017-Dec-01 21:30N 34°59' E 136°48'0 0.1
2017-Dec-01 21:00N 34°59' E 136°48'0 0.0
2017-Dec-01 20:30N 34°59' E 136°48'0 0.0
2017-Dec-01 20:00N 34°59' E 136°48'0 0.0
2017-Dec-01 19:30N 34°59' E 136°48'0 0.1
2017-Dec-01 19:00N 34°59' E 136°48'0 0.8
2017-Dec-01 18:30N 34°59' E 136°47'510.2
2017-Dec-01 18:00N 34°54' E 136°47'510.5
2017-Dec-01 17:30N 34°48' E 136°48'510.3
2017-Dec-01 16:59N 34°44' E 136°50'  
Track history (hours):
 
Tides and Currents Weather Stations Pressure Air Temp Water Temp Dewpoint Dewpoint Depression Visibility Wind Speed Wind Dir Waves Ship Positions

Meiryu Maru

Last reported at 2017-Dec-11 16:59 UTC. Time now 2017-Dec-14 16:56 UTC.
Position N 35°27' E 139°42'.

Length 76 m; draft 4 m.

Type: Cargo ship. MMSI: 431000206.

Date/timePositionNaut miles runAvg speedWind from/ knotsBaromVisibWave heightAir tempDewpointWater temp
2017-Dec-11 16:59N 35°27' E 139°42'3 6.9
2017-Dec-11 16:30N 35°23' E 139°43'510.7
2017-Dec-11 16:00N 35°18' E 139°44'510.6
2017-Dec-11 15:30N 35°13' E 139°47'510.6
2017-Dec-11 15:00N 35°08' E 139°45'611.7
2017-Dec-11 14:30N 35°05' E 139°39'611.7
2017-Dec-11 14:00N 35°02' E 139°33'612.5
2017-Dec-11 13:30N 34°59' E 139°26'612.6
2017-Dec-11 12:59N 34°56' E 139°19'611.7
2017-Dec-11 12:28N 34°52' E 139°14'511.6
2017-Dec-11 12:01N 34°48' E 139°10'612.0
2017-Dec-11 11:30N 34°43' E 139°05'712.0
2017-Dec-11 10:58N 34°38' E 138°60'511.2
2017-Dec-11 10:30N 34°35' E 138°54'611.8
2017-Dec-11 09:58N 34°35' E 138°47'510.6
2017-Dec-11 09:29N 34°35' E 138°40'511.4
2017-Dec-11 09:00N 34°35' E 138°34'711.8
2017-Dec-11 08:27N 34°34' E 138°26'511.5
2017-Dec-11 08:00N 34°34' E 138°20'611.2
2017-Dec-11 07:27N 34°34' E 138°12'4411.9
2017-Dec-11 03:48N 34°36' E 137°19'411.8
2017-Dec-11 03:29N 34°35' E 137°15'117 8.9
2017-Dec-10 14:24N 33°50' E 135°05'511.5
2017-Dec-10 13:58N 33°54' E 135°02'511.6
2017-Dec-10 13:30N 33°60' E 135°01'611.6
2017-Dec-10 13:00N 34°05' E 134°60'611.9
2017-Dec-10 12:31N 34°11' E 134°59'713.1
2017-Dec-10 12:00N 34°18' E 134°59'612.5
2017-Dec-10 11:30N 34°24' E 135°01'612.6
2017-Dec-10 11:00N 34°30' E 135°02'612.0
2017-Dec-10 10:31N 34°36' E 135°02'612.9
2017-Dec-10 10:00N 34°37' E 134°55'612.8
2017-Dec-10 09:30N 34°41' E 134°49'2 0.1
2017-Dec-09 11:42N 34°43' E 134°49'0 1.1
2017-Dec-09 11:30N 34°43' E 134°49'1 2.9
2017-Dec-09 10:59N 34°42' E 134°48'1 2.5
2017-Dec-09 10:29N 34°41' E 134°48'0 0.0
2017-Dec-09 09:55N 34°41' E 134°48'0 0.0
2017-Dec-09 09:26N 34°41' E 134°48'1 2.9
2017-Dec-09 09:00N 34°40' E 134°49'5 9.6
2017-Dec-09 08:31N 34°38' E 134°54'510.5
2017-Dec-09 08:00N 34°38' E 135°00'510.5
2017-Dec-09 07:30N 34°34' E 135°05'611.7
2017-Dec-09 07:00N 34°29' E 135°04'612.1
2017-Dec-09 06:30N 34°23' E 135°02'612.4
2017-Dec-09 06:00N 34°17' E 134°59'612.0
2017-Dec-09 05:30N 34°11' E 135°00'611.7
2017-Dec-09 05:00N 34°05' E 135°01'611.5
2017-Dec-09 04:28N 33°59' E 135°02'174 9.4
2017-Dec-08 09:58N 34°34' E 138°28'5 9.9
2017-Dec-08 09:25N 34°35' E 138°34'18 9.9
2017-Dec-08 07:34N 34°36' E 138°57'311.3
2017-Dec-08 07:18N 34°38' E 138°59'412.2
2017-Dec-08 07:00N 34°40' E 139°02'812.0
2017-Dec-08 06:21N 34°46' E 139°08'1011.5
2017-Dec-08 05:29N 34°53' E 139°17'610.9
2017-Dec-08 04:56N 34°57' E 139°23'4 9.5
2017-Dec-08 04:30N 34°59' E 139°27'5 9.2
2017-Dec-08 04:00N 35°01' E 139°32'510.5
2017-Dec-08 03:30N 35°04' E 139°37'510.6
2017-Dec-08 03:00N 35°08' E 139°42'511.1
2017-Dec-08 02:30N 35°12' E 139°46'611.7
2017-Dec-08 02:00N 35°18' E 139°44'611.8
2017-Dec-08 01:30N 35°24' E 139°43'611.6
2017-Dec-08 01:00N 35°27' E 139°48'611.7
2017-Dec-08 00:29N 35°31' E 139°55'3 3.9
2017-Dec-07 23:47N 35°31' E 139°58'0 0.1
2017-Dec-07 23:26N 35°31' E 139°58'0 0.0
2017-Dec-07 22:56N 35°31' E 139°58'0 0.1
2017-Dec-07 22:20N 35°31' E 139°58'0 0.0
2017-Dec-07 21:56N 35°31' E 139°58'0 0.0
2017-Dec-07 21:08N 35°31' E 139°58'0 0.0
2017-Dec-07 20:56N 35°31' E 139°58'0 0.0
2017-Dec-07 19:32N 35°31' E 139°58'0 0.0
2017-Dec-07 19:29N 35°31' E 139°58'0 0.0
2017-Dec-07 18:59N 35°31' E 139°58'0 0.0
2017-Dec-07 18:29N 35°31' E 139°58'0 0.0
2017-Dec-07 17:59N 35°31' E 139°58'0 0.0
2017-Dec-07 17:26N 35°31' E 139°58'0 0.0
2017-Dec-07 16:59N 35°31' E 139°58'0 0.0
2017-Dec-07 16:29N 35°31' E 139°58'0 0.0
2017-Dec-07 15:56N 35°31' E 139°58'0 0.0
2017-Dec-07 15:29N 35°31' E 139°58'0 0.1
2017-Dec-07 14:56N 35°31' E 139°58'0 0.0
2017-Dec-07 13:50N 35°31' E 139°58'0 0.0
2017-Dec-07 13:29N 35°31' E 139°58'0 0.0
2017-Dec-07 12:59N 35°31' E 139°58'0 0.0
2017-Dec-07 12:29N 35°31' E 139°58'0 0.1
2017-Dec-07 11:50N 35°31' E 139°58'0 0.1
2017-Dec-07 11:26N 35°31' E 139°58'0 0.0
2017-Dec-07 10:50N 35°31' E 139°58'0 0.0
2017-Dec-07 10:26N 35°31' E 139°58'0 0.1
2017-Dec-07 09:57N 35°31' E 139°58'4 9.3
2017-Dec-07 09:30N 35°35' E 139°59'5 0.5
2017-Dec-06 21:57N 35°41' E 139°57'3 6.1
2017-Dec-06 21:30N 35°38' E 139°59'1 1.3
2017-Dec-06 20:58N 35°37' E 139°59'  
2017-Dec-04 10:24N 34°43' E 134°51'0 0.0
2017-Dec-04 10:00N 34°43' E 134°51'0 0.0
2017-Dec-04 09:24N 34°43' E 134°51'0 0.0
2017-Dec-04 09:00N 34°43' E 134°51'0 0.0
2017-Dec-04 08:30N 34°43' E 134°51'0 0.0
2017-Dec-04 07:30N 34°43' E 134°51'0 0.0
2017-Dec-04 07:00N 34°43' E 134°51'0 0.0
2017-Dec-04 06:30N 34°43' E 134°51'0 0.0
2017-Dec-04 06:00N 34°43' E 134°51'0 0.0
2017-Dec-04 05:30N 34°43' E 134°51'0 0.0
2017-Dec-04 05:00N 34°43' E 134°51'0 0.0
2017-Dec-04 04:30N 34°43' E 134°51'0 0.0
2017-Dec-04 04:00N 34°43' E 134°51'0 0.0
2017-Dec-04 03:30N 34°43' E 134°51'0 0.0
2017-Dec-04 03:00N 34°43' E 134°51'0 0.0
2017-Dec-04 02:30N 34°43' E 134°51'0 0.0
2017-Dec-04 02:00N 34°43' E 134°51'0 0.0
2017-Dec-04 01:30N 34°43' E 134°51'0 0.0
2017-Dec-04 00:48N 34°43' E 134°51'0 0.0
2017-Dec-04 00:30N 34°43' E 134°51'0 0.0
2017-Dec-04 00:00N 34°43' E 134°51'0 0.0
2017-Dec-03 23:30N 34°43' E 134°51'0 0.0
2017-Dec-03 23:00N 34°43' E 134°51'0 0.0
2017-Dec-03 22:30N 34°43' E 134°51'0 0.0
2017-Dec-03 22:00N 34°43' E 134°51'0 0.0
2017-Dec-03 21:30N 34°43' E 134°51'0 0.0
2017-Dec-03 21:00N 34°43' E 134°51'0 0.0
2017-Dec-03 20:30N 34°43' E 134°51'0 0.0
2017-Dec-03 20:00N 34°43' E 134°51'0 0.0
2017-Dec-03 19:30N 34°43' E 134°51'0 0.0
2017-Dec-03 19:00N 34°43' E 134°51'0 0.0
2017-Dec-03 18:30N 34°43' E 134°51'0 0.0
2017-Dec-03 17:51N 34°43' E 134°51'0 0.0
2017-Dec-03 17:30N 34°43' E 134°51'0 0.0
2017-Dec-03 17:00N 34°43' E 134°51'0 0.0
2017-Dec-03 16:30N 34°43' E 134°51'0 0.0
2017-Dec-03 16:00N 34°43' E 134°51'0 0.0
2017-Dec-03 15:30N 34°43' E 134°51'0 0.0
2017-Dec-03 15:00N 34°43' E 134°51'0 0.0
2017-Dec-03 14:30N 34°43' E 134°51'0 0.0
2017-Dec-03 14:00N 34°43' E 134°51'0 0.0
2017-Dec-03 13:30N 34°43' E 134°51'0 0.0
2017-Dec-03 13:00N 34°43' E 134°51'0 0.0
2017-Dec-03 12:30N 34°43' E 134°51'0 0.0
2017-Dec-03 11:54N 34°43' E 134°51'0 0.0
2017-Dec-03 11:30N 34°43' E 134°51'0 0.0
2017-Dec-03 11:00N 34°43' E 134°51'0 0.0
2017-Dec-03 10:27N 34°43' E 134°51'0 0.0
2017-Dec-03 10:00N 34°43' E 134°51'0 0.0
2017-Dec-03 09:30N 34°43' E 134°51'0 0.0
2017-Dec-03 09:00N 34°43' E 134°51'0 0.0
2017-Dec-03 08:30N 34°43' E 134°51'0 0.0
2017-Dec-03 08:00N 34°43' E 134°51'0 0.0
2017-Dec-03 07:30N 34°43' E 134°51'0 0.0
2017-Dec-03 07:00N 34°43' E 134°51'0 0.0
2017-Dec-03 06:30N 34°43' E 134°51'0 0.0
2017-Dec-03 06:00N 34°43' E 134°51'0 0.0
2017-Dec-03 05:30N 34°43' E 134°51'0 0.0
2017-Dec-03 05:00N 34°43' E 134°51'0 0.0
2017-Dec-03 04:30N 34°43' E 134°51'0 0.0
2017-Dec-03 04:00N 34°43' E 134°51'0 0.0
2017-Dec-03 03:30N 34°43' E 134°51'1 1.3
2017-Dec-03 03:00N 34°42' E 134°50'4 8.6
2017-Dec-03 02:30N 34°38' E 134°52'510.3
2017-Dec-03 02:00N 34°38' E 134°59'611.6
2017-Dec-03 01:30N 34°35' E 135°05'611.8
2017-Dec-03 01:00N 34°30' E 135°04'612.1
2017-Dec-03 00:30N 34°24' E 135°02'611.9
2017-Dec-03 00:00N 34°18' E 134°60'612.4
2017-Dec-02 23:30N 34°12' E 134°60'612.2
2017-Dec-02 23:00N 34°06' E 135°00'612.2
2017-Dec-02 22:30N 33°60' E 135°01'104 8.0
2017-Dec-02 09:29N 34°33' E 137°01'712.9
2017-Dec-02 08:58N 34°37' E 136°55'511.1
2017-Dec-02 08:30N 34°41' E 136°51'612.6
2017-Dec-02 08:00N 34°47' E 136°48'612.5
2017-Dec-02 07:30N 34°53' E 136°47'612.0
2017-Dec-02 07:00N 34°59' E 136°49'510.6
2017-Dec-02 06:30N 35°03' E 136°53'0 0.1
2017-Dec-02 06:00N 35°03' E 136°53'0 0.0
2017-Dec-02 05:30N 35°03' E 136°53'0 0.0
2017-Dec-02 05:00N 35°03' E 136°53'0 0.0
2017-Dec-02 04:30N 35°03' E 136°53'0 0.0
2017-Dec-02 04:00N 35°03' E 136°53'0 0.0
2017-Dec-02 03:30N 35°03' E 136°53'0 0.0
2017-Dec-02 03:00N 35°03' E 136°53'0 0.0
2017-Dec-02 02:30N 35°03' E 136°53'0 0.0
2017-Dec-02 02:00N 35°03' E 136°53'0 0.0
2017-Dec-02 01:30N 35°03' E 136°53'0 0.0
2017-Dec-02 01:00N 35°03' E 136°53'0 0.0
2017-Dec-02 00:30N 35°03' E 136°53'0 0.0
2017-Dec-02 00:00N 35°03' E 136°53'0 0.0
2017-Dec-01 23:30N 35°03' E 136°53'0 0.1
2017-Dec-01 23:01N 35°03' E 136°53'3 6.2
2017-Dec-01 22:30N 35°01' E 136°50'3 5.4
2017-Dec-01 22:00N 34°59' E 136°48'0 0.0
2017-Dec-01 21:30N 34°59' E 136°48'0 0.1
2017-Dec-01 21:00N 34°59' E 136°48'0 0.0
2017-Dec-01 20:30N 34°59' E 136°48'0 0.0
2017-Dec-01 20:00N 34°59' E 136°48'0 0.0
2017-Dec-01 19:30N 34°59' E 136°48'0 0.1
2017-Dec-01 19:00N 34°59' E 136°48'0 0.8
2017-Dec-01 18:30N 34°59' E 136°47'510.2
2017-Dec-01 18:00N 34°54' E 136°47'510.5
2017-Dec-01 17:30N 34°48' E 136°48'510.3
2017-Dec-01 16:59N 34°44' E 136°50'  

Dump ship's entire track history